Flugplatz Eisenach/Kindel (EDGE)

Hier findest Du alle Informationen zum Flugplatz Eisenach/Kindel (EDGE).

Informationen für Piloten zum Flugplatz Eisenach/Kindel

Hier findest Du alle relevanten Informationen, die Du als Pilot benötigst, um Eisenach/Kindel anzufliegen.

Flugplatz: Eisenach/Kindel ICAO-Code: EDGE
Frequenz Turm: 119,750 Mhz GAFOR Gebiet: 24
Frequenz Ground: 119,750 Mhz Mogas: ja
Platzrunde: N 1900 ft Landegebühr: -
Platzhöhe: - Sunrise: 06:05 Uhr UTC
Pisten: 10/28 - 1.500 m x 55 m, BIT Sunset: 15:57 Uhr UTC

Flugwetter am Flugplatz Eisenach/Kindel

Die METAR Information stammen aus EDDE (33.43 km entfernt).

METAR Code:
2020/10/27 18:20
EDDE 271820Z 20010KT 180V240 9999 FEW030 09/05 Q1009 NOSIG

Flugschulen am Flugplatz Eisenach/Kindel

Am Flugplatz Eisenach/Kindel gibt es leider keine Flugschule.

Benachbarte Flugplätze und Flugschulen

Es gibt 9 weitere Flugplätze in einem Umkreis von 50 km um den Flugplatz Eisenach/Kindel.

Jetzt anmelden

Passwort vergessen

Umfrage Archiv

Wären Rettungsgeräte keine Pflicht mehr, würdet Ihr Euer UL trotzdem mit einem ausstatten?

Ja
85.9 %
Nein
14.1 %
Stimmen: 361 | Diskussion
Anzeige: Roland Aircraft
Statistik Alle Mitglieder

Aktuell sind 47 Besucher online.

Anzeige: VFR Sprechfunk Simulator


Anzeige: Pocket FMS